Time;durP1;ratioP1;P1;durP2;ratioP2;P2;SDS_P1;SDS_P2;PMS_P1;PMS_P2;Temp;Humidity;BMP_temperature;BMP_pressure;BME280_temperature;BME280_humidity;BME280_pressure;Samples;Min_cycle;Max_cycle;Signal;HPM_P1;HPM_P2
2021/05/15 16:26:00;;;;;;;5.33;1.82;;;;;;;19.87;49.54;98451.53;1834825;77;22161;-66
2021/05/15 16:28:35;;;;;;;4.30;1.70;;;;;;;19.78;49.14;98454.45;1870609;76;22144;-66
2021/05/15 16:31:09;;;;;;;4.03;1.60;;;;;;;19.66;49.17;98452.22;1889888;76;22159;-67
2021/05/15 16:33:45;;;;;;;3.85;1.40;;;;;;;19.53;49.11;98464.87;1854662;76;27862;-68
2021/05/15 16:36:26;;;;;;;5.55;1.60;;;;;;;19.42;49.20;98462.61;1869756;76;22105;-66
2021/05/15 16:39:01;;;;;;;3.77;1.62;;;;;;;19.29;49.69;98463.47;1890012;76;22155;-65
2021/05/15 16:41:48;;;;;;;5.08;1.50;;;;;;;19.12;49.89;98469.69;1861213;77;21138;-64
2021/05/15 16:44:24;;;;;;;4.35;1.62;;;;;;;19.01;50.30;98473.11;1870609;76;22105;-65
2021/05/15 16:47:02;;;;;;;4.17;1.98;;;;;;;18.87;50.74;98475.67;1870607;76;22140;-67
2021/05/15 16:49:36;;;;;;;4.25;1.20;;;;;;;18.73;50.91;98477.83;1870537;76;22174;-66
2021/05/15 16:52:11;;;;;;;3.22;1.20;;;;;;;18.61;50.79;98480.80;1870690;76;22168;-67
2021/05/15 16:54:48;;;;;;;3.30;1.42;;;;;;;18.47;50.91;98475.11;1870513;76;22604;-65
2021/05/15 16:57:28;;;;;;;3.40;1.35;;;;;;;18.35;51.05;98481.10;1869777;76;22160;-66
2021/05/15 17:00:15;;;;;;;2.62;1.30;;;;;;;18.18;51.17;98477.64;1760264;81;21177;-65
2021/05/15 17:02:52;;;;;;;2.45;1.05;;;;;;;18.12;51.41;98473.91;1870222;76;22259;-67
2021/05/15 17:05:27;;;;;;;2.60;1.32;;;;;;;18.04;51.24;98476.30;1946856;73;22086;-65
2021/05/15 17:08:23;;;;;;;2.83;1.20;;;;;;;17.92;51.33;98481.42;1864707;75;22316;-67
2021/05/15 17:10:59;;;;;;;2.67;1.20;;;;;;;17.85;51.59;98484.63;1870554;76;22129;-65
2021/05/15 17:13:36;;;;;;;4.80;1.50;;;;;;;17.78;51.71;98482.62;1870395;76;22181;-65
2021/05/15 17:16:12;;;;;;;3.05;1.50;;;;;;;17.72;51.71;98477.98;1870445;76;22137;-66
2021/05/15 17:18:50;;;;;;;4.12;1.62;;;;;;;17.66;52.08;98477.70;1870297;76;22579;-64
2021/05/15 17:21:45;;;;;;;3.55;1.62;;;;;;;17.64;52.10;98483.86;1881054;75;22216;-66
2021/05/15 17:24:25;;;;;;;3.80;1.37;;;;;;;17.57;52.36;98485.30;1889874;76;22108;-63
2021/05/15 17:27:12;;;;;;;3.42;1.72;;;;;;;17.50;52.48;98492.02;1861098;77;21142;-67
2021/05/15 17:29:47;;;;;;;3.85;1.80;;;;;;;17.47;52.69;98486.42;1870726;76;22227;-66
2021/05/15 17:32:23;;;;;;;3.00;1.47;;;;;;;17.41;52.96;98490.50;1870399;76;20097;-66
2021/05/15 17:34:59;;;;;;;3.15;1.57;;;;;;;17.37;53.41;98496.67;1889921;76;22136;-67
2021/05/15 17:37:45;;;;;;;2.30;1.30;;;;;;;17.29;53.72;98505.98;1861362;77;21106;-66
2021/05/15 17:40:20;;;;;;;4.45;1.50;;;;;;;17.29;53.87;98495.55;1870582;76;22540;-67
2021/05/15 17:42:55;;;;;;;5.12;1.95;;;;;;;17.26;53.99;98495.63;1930262;73;27712;-66
2021/05/15 17:45:34;;;;;;;3.83;1.62;;;;;;;17.24;53.77;98498.72;1889924;76;22217;-64
2021/05/15 17:48:15;;;;;;;5.08;1.60;;;;;;;17.17;54.15;98495.83;1869710;76;22173;-63
2021/05/15 17:50:49;;;;;;;3.10;1.55;;;;;;;17.12;54.62;98503.79;1889949;76;22140;-65
2021/05/15 17:53:24;;;;;;;3.98;1.75;;;;;;;17.09;55.06;98501.22;1870577;76;22125;-66
2021/05/15 17:55:59;;;;;;;4.12;1.80;;;;;;;17.08;55.08;98504.73;1870615;76;22191;-66
2021/05/15 17:58:34;;;;;;;4.40;2.10;;;;;;;17.05;55.47;98507.42;1889932;76;22108;-64
2021/05/15 18:01:16;;;;;;;4.80;2.30;;;;;;;17.04;55.60;98508.75;1854684;76;27920;-66
2021/05/15 18:03:52;;;;;;;8.53;2.47;;;;;;;17.07;55.96;98509.55;1870474;76;22117;-68
2021/05/15 18:06:27;;;;;;;6.60;3.12;;;;;;;17.07;56.05;98512.58;1873908;76;38623;-65
2021/05/15 18:09:13;;;;;;;3.92;2.25;;;;;;;17.04;56.08;98514.81;1791721;80;21146;-67
2021/05/15 18:11:48;;;;;;;4.67;2.17;;;;;;;17.07;56.15;98514.77;1889994;76;22144;-65
2021/05/15 18:14:23;;;;;;;4.58;2.10;;;;;;;17.04;56.26;98518.72;1870650;76;22519;-68
2021/05/15 18:17:00;;;;;;;7.22;2.30;;;;;;;17.02;56.39;98523.14;1870374;76;22208;-66
2021/05/15 18:19:35;;;;;;;5.33;2.52;;;;;;;17.00;56.52;98524.91;1870632;76;22536;-67
2021/05/15 18:22:14;;;;;;;7.22;2.75;;;;;;;17.02;56.52;98523.14;1870498;76;22588;-67
2021/05/15 18:24:47;;;;;;;7.35;2.72;;;;;;;17.03;56.51;98523.53;1889889;76;22185;-65
2021/05/15 18:27:22;;;;;;;5.50;3.10;;;;;;;17.02;56.59;98519.23;1870726;76;22559;-67
2021/05/15 18:29:56;;;;;;;5.35;2.83;;;;;;;16.97;56.89;98521.08;1890024;76;22193;-64
2021/05/15 18:32:31;;;;;;;4.75;2.45;;;;;;;16.93;57.21;98519.42;1890010;76;22128;-66
2021/05/15 18:35:07;;;;;;;14.38;3.42;;;;;;;16.93;57.40;98520.72;1870643;76;22148;-64
2021/05/15 18:37:41;;;;;;;6.03;3.50;;;;;;;16.92;57.62;98524.23;1854771;76;27933;-66
2021/05/15 18:40:16;;;;;;;5.70;3.52;;;;;;;16.95;57.81;98526.77;1889913;76;22151;-66
2021/05/15 18:42:51;;;;;;;10.80;3.62;;;;;;;16.98;57.92;98524.53;1870644;76;22129;-67
2021/05/15 18:45:26;;;;;;;7.50;3.75;;;;;;;16.97;58.06;98526.71;1870634;76;22149;-65
2021/05/15 18:48:01;;;;;;;9.30;3.50;;;;;;;16.91;58.34;98523.80;1870610;76;22133;-64
2021/05/15 18:50:37;;;;;;;5.90;3.52;;;;;;;16.86;58.52;98529.56;1870462;76;20102;-62
2021/05/15 18:53:13;;;;;;;7.00;4.00;;;;;;;16.83;58.70;98532.23;1870415;76;22254;-63
2021/05/15 18:55:49;;;;;;;9.65;4.60;;;;;;;16.80;58.85;98533.16;1854502;76;38635;-64
2021/05/15 18:58:31;;;;;;;7.80;4.50;;;;;;;16.77;59.16;98532.34;1889862;76;22184;-65
2021/05/15 19:01:10;;;;;;;8.50;5.00;;;;;;;16.68;59.58;98535.98;1854580;76;27896;-66
2021/05/15 19:03:46;;;;;;;9.03;5.05;;;;;;;16.65;59.80;98535.60;1870469;76;22597;-64
2021/05/15 19:06:21;;;;;;;7.35;4.30;;;;;;;16.58;60.08;98539.66;1889946;76;22143;-64
2021/05/15 19:09:18;;;;;;;6.80;3.85;;;;;;;16.50;60.40;98543.73;1867388;75;22224;-67
2021/05/15 19:11:55;;;;;;;7.55;4.28;;;;;;;16.43;60.62;98540.82;1889916;76;22585;-66
2021/05/15 19:14:29;;;;;;;9.18;4.90;;;;;;;16.39;60.95;98543.09;1870658;76;22149;-67
2021/05/15 19:17:04;;;;;;;11.75;5.55;;;;;;;16.34;61.30;98538.41;1870655;76;22141;-64
2021/05/15 19:19:41;;;;;;;17.75;10.85;;;;;;;16.25;61.74;98537.67;1870634;76;22543;-66
2021/05/15 19:22:18;;;;;;;39.30;22.55;;;;;;;16.14;62.21;98539.63;1870612;76;22136;-67
2021/05/15 19:25:08;;;;;;;22.07;12.45;;;;;;;16.01;62.64;98545.50;1827395;78;21119;-67
2021/05/15 19:27:46;;;;;;;14.18;8.53;;;;;;;15.95;63.15;98535.22;1870220;76;22190;-65
2021/05/15 19:30:24;;;;;;;12.10;7.60;;;;;;;15.90;63.49;98538.76;1889868;76;22233;-64
2021/05/15 19:33:00;;;;;;;8.73;5.50;;;;;;;15.84;63.84;98534.08;1889938;76;22152;-66
2021/05/15 19:35:35;;;;;;;8.35;4.58;;;;;;;15.78;64.40;98534.20;1873872;76;28356;-65
2021/05/15 19:38:20;;;;;;;8.53;4.25;;;;;;;15.73;64.48;98534.72;1861401;77;21276;-65
2021/05/15 19:40:55;;;;;;;6.35;4.08;;;;;;;15.75;64.78;98538.61;1890021;76;22136;-64
2021/05/15 19:43:31;;;;;;;15.05;4.83;;;;;;;15.71;64.91;98539.53;1889910;76;22104;-63
2021/05/15 19:46:11;;;;;;;8.08;4.15;;;;;;;15.67;65.08;98536.06;1869787;76;22268;-65
2021/05/15 19:48:47;;;;;;;8.43;4.58;;;;;;;15.63;65.12;98536.57;1854369;76;27916;-65
2021/05/15 19:51:22;;;;;;;7.25;4.17;;;;;;;15.69;65.16;98529.13;1869254;76;22563;-65
2021/05/15 19:53:58;;;;;;;8.38;4.42;;;;;;;15.68;65.22;98526.55;1854314;76;22227;-65
2021/05/15 19:56:33;;;;;;;6.78;4.47;;;;;;;15.64;65.37;98530.92;1852549;76;22652;-65
2021/05/15 19:59:08;;;;;;;8.35;4.47;;;;;;;15.57;65.54;98531.48;1860343;76;22231;-63
2021/05/15 20:01:43;;;;;;;9.65;5.08;;;;;;;15.50;65.79;98527.70;1852871;76;22256;-67
2021/05/15 20:04:18;;;;;;;8.58;5.10;;;;;;;15.42;66.10;98527.83;1827846;76;28506;-65
2021/05/15 20:06:52;;;;;;;9.10;4.80;;;;;;;15.40;66.32;98530.44;1870627;76;22137;-64
2021/05/15 20:09:27;;;;;;;9.00;6.03;;;;;;;15.35;66.74;98527.05;1871465;76;22602;-65
2021/05/15 20:12:04;;;;;;;8.30;5.20;;;;;;;15.28;66.87;98520.66;1852091;76;22101;-65
2021/05/15 20:14:44;;;;;;;10.85;5.10;;;;;;;15.23;67.08;98526.38;1852814;76;22259;-63
2021/05/15 20:17:18;;;;;;;7.30;4.78;;;;;;;15.17;67.45;98526.03;1852916;76;22221;-65
2021/05/15 20:19:53;;;;;;;8.33;3.83;;;;;;;15.13;67.59;98523.05;1859913;76;22254;-64
2021/05/15 20:22:37;;;;;;;9.70;3.58;;;;;;;15.12;67.75;98529.14;1854162;76;22187;-61
2021/05/15 20:25:15;;;;;;;7.65;3.60;;;;;;;15.17;67.70;98535.13;1870542;76;22562;-63
2021/05/15 20:28:01;;;;;;;8.10;4.33;;;;;;;15.20;67.52;98534.62;1827866;78;21135;-65
2021/05/15 20:30:36;;;;;;;7.80;4.62;;;;;;;15.32;67.30;98534.90;1873767;76;27934;-62
2021/05/15 20:33:11;;;;;;;6.58;3.67;;;;;;;15.41;67.20;98532.14;1863681;76;22562;-65
2021/05/15 20:35:47;;;;;;;7.08;3.75;;;;;;;15.52;66.93;98531.11;1831080;76;28265;-65
2021/05/15 20:38:22;;;;;;;6.85;3.10;;;;;;;15.62;66.71;98530.08;1870600;76;22171;-66
2021/05/15 20:40:57;;;;;;;5.83;3.45;;;;;;;15.73;66.38;98529.96;1868342;76;22139;-63
2021/05/15 20:43:31;;;;;;;6.67;3.85;;;;;;;15.80;66.11;98528.98;1871858;76;22585;-64
2021/05/15 20:46:06;;;;;;;7.75;3.92;;;;;;;15.87;65.91;98531.02;1851886;76;22216;-65
2021/05/15 20:48:52;;;;;;;6.78;4.00;;;;;;;15.88;65.85;98529.70;1851401;76;22198;-65
2021/05/15 20:51:38;;;;;;;7.55;4.72;;;;;;;15.85;65.81;98534.96;1814180;77;21268;-63
2021/05/15 20:54:12;;;;;;;6.55;4.75;;;;;;;15.88;65.83;98531.00;1852443;76;22155;-63
2021/05/15 20:56:47;;;;;;;8.40;5.10;;;;;;;15.87;65.88;98524.51;1863372;76;22604;-65
2021/05/15 20:59:27;;;;;;;9.50;5.30;;;;;;;15.86;65.90;98533.21;1850985;76;22634;-66
2021/05/15 21:02:02;;;;;;;7.25;4.40;;;;;;;15.81;66.12;98534.13;1855980;76;22228;-66
2021/05/15 21:04:38;;;;;;;8.45;5.03;;;;;;;15.77;66.25;98537.70;1852361;76;22214;-65
2021/05/15 21:07:12;;;;;;;9.33;5.70;;;;;;;15.79;66.29;98536.34;1834587;76;28074;-65
2021/05/15 21:09:47;;;;;;;8.48;5.33;;;;;;;15.82;66.27;98535.88;1855243;76;22223;-64
2021/05/15 21:12:43;;;;;;;7.72;4.70;;;;;;;15.80;66.35;98537.63;1856930;75;22589;-64
2021/05/15 21:15:28;;;;;;;7.78;5.40;;;;;;;15.75;66.46;98538.61;1829167;77;21141;-65
2021/05/15 21:18:22;;;;;;;7.80;5.20;;;;;;;15.77;66.59;98540.71;1861829;76;22210;-62
2021/05/15 21:20:58;;;;;;;8.65;5.58;;;;;;;15.77;66.62;98545.50;1840721;76;28085;-62
2021/05/15 21:23:36;;;;;;;11.08;5.78;;;;;;;15.78;66.67;98544.60;1870551;76;22117;-66
2021/05/15 21:26:10;;;;;;;11.15;6.87;;;;;;;15.73;66.85;98549.02;1870548;76;22578;-64
2021/05/15 21:28:45;;;;;;;9.88;5.90;;;;;;;15.65;67.14;98546.96;1870595;76;22132;-64
2021/05/15 21:31:21;;;;;;;11.08;6.90;;;;;;;15.57;67.36;98544.91;1873786;76;27901;-63
2021/05/15 21:33:55;;;;;;;8.38;5.60;;;;;;;15.55;67.66;98546.69;1835021;77;22160;-63
2021/05/15 21:36:30;;;;;;;13.38;5.62;;;;;;;15.46;67.91;98549.42;1860727;76;22243;-64
2021/05/15 21:39:05;;;;;;;10.98;5.53;;;;;;;15.42;68.22;98548.62;1853114;76;22199;-65
2021/05/15 21:41:40;;;;;;;12.03;6.65;;;;;;;15.38;68.38;98550.39;1853485;76;22163;-62
2021/05/15 21:44:14;;;;;;;12.00;5.53;;;;;;;15.31;68.68;98546.61;1852979;76;22620;-63
2021/05/15 21:46:49;;;;;;;7.83;5.50;;;;;;;15.28;68.80;98547.52;1856357;76;22183;-64
2021/05/15 21:49:23;;;;;;;8.45;5.45;;;;;;;15.32;68.80;98547.91;1857640;76;22158;-65
2021/05/15 21:51:59;;;;;;;10.80;6.83;;;;;;;15.34;68.76;98553.94;1842938;76;28011;-65
2021/05/15 21:54:35;;;;;;;11.95;7.40;;;;;;;15.38;68.79;98556.05;1852277;76;22267;-66
2021/05/15 21:57:29;;;;;;;9.58;5.87;;;;;;;15.28;69.09;98557.91;1862334;76;22239;-65
2021/05/15 22:00:25;;;;;;;9.53;5.95;;;;;;;15.17;69.41;98558.08;1849512;76;22686;-65
2021/05/15 22:02:59;;;;;;;8.43;5.65;;;;;;;15.15;69.57;98553.33;1852287;76;22634;-64
2021/05/15 22:05:57;;;;;;;8.43;5.53;;;;;;;15.15;69.74;98553.78;1851212;76;22192;-66
2021/05/15 22:08:43;;;;;;;7.90;5.65;;;;;;;15.09;69.82;98561.23;1833085;77;21097;-66
2021/05/15 22:11:19;;;;;;;8.00;5.78;;;;;;;15.11;70.03;98561.19;1827867;76;28389;-61
2021/05/15 22:13:55;;;;;;;7.72;5.80;;;;;;;15.17;70.15;98555.92;1889000;76;22156;-61
2021/05/15 22:16:30;;;;;;;8.28;5.87;;;;;;;15.20;70.19;98552.83;1869703;76;22149;-61
2021/05/15 22:19:05;;;;;;;9.43;5.80;;;;;;;15.22;70.33;98554.56;1889907;76;22112;-63
2021/05/15 22:21:41;;;;;;;6.90;5.47;;;;;;;15.23;70.43;98551.07;1889820;76;22139;-61
2021/05/15 22:24:16;;;;;;;8.20;5.90;;;;;;;15.24;70.49;98548.88;1870491;76;22235;-61
2021/05/15 22:26:53;;;;;;;9.70;6.22;;;;;;;15.25;70.49;98556.67;1870312;76;22136;-60
2021/05/15 22:29:28;;;;;;;9.43;6.40;;;;;;;15.26;70.56;98557.52;1870516;76;22169;-63
2021/05/15 22:32:08;;;;;;;9.10;6.50;;;;;;;15.27;70.59;98556.20;1869729;76;22132;-60
2021/05/15 22:34:44;;;;;;;9.63;6.33;;;;;;;15.32;70.57;98560.90;1873751;76;28328;-61
2021/05/15 22:37:24;;;;;;;10.60;6.47;;;;;;;15.36;70.59;98556.50;1889849;76;22612;-61
2021/05/15 22:39:59;;;;;;;9.98;6.42;;;;;;;15.29;70.87;98559.66;1870586;76;22141;-60
2021/05/15 22:42:33;;;;;;;11.83;6.65;;;;;;;15.22;71.27;98564.52;1870589;76;22104;-62
2021/05/15 22:45:21;;;;;;;10.80;7.30;;;;;;;15.10;71.63;98565.98;1760424;81;21694;-62
2021/05/15 22:47:56;;;;;;;10.93;7.55;;;;;;;15.02;71.95;98560.89;1870571;76;22556;-62
2021/05/15 22:50:35;;;;;;;14.30;6.65;;;;;;;14.88;72.33;98562.38;1870183;76;22247;-61
2021/05/15 22:53:12;;;;;;;10.20;7.05;;;;;;;14.75;72.94;98557.75;1870614;76;22140;-61
2021/05/15 22:55:48;;;;;;;10.20;7.28;;;;;;;14.70;73.45;98565.18;1889826;76;22144;-61
2021/05/15 22:58:24;;;;;;;8.85;7.08;;;;;;;14.62;73.62;98561.83;1870341;76;22140;-62
2021/05/15 23:01:00;;;;;;;11.08;7.50;;;;;;;14.53;73.99;98562.36;1854489;76;27901;-60
2021/05/15 23:03:41;;;;;;;10.18;7.37;;;;;;;14.49;74.38;98559.77;1869707;76;22169;-59
2021/05/15 23:06:16;;;;;;;10.90;8.50;;;;;;;14.41;74.72;98565.05;1854485;76;27926;-60
2021/05/15 23:08:51;;;;;;;10.85;8.00;;;;;;;14.36;75.13;98561.65;1870549;76;22121;-60
2021/05/15 23:11:32;;;;;;;12.28;9.28;;;;;;;14.25;75.46;98556.58;1869630;76;22141;-61
2021/05/15 23:14:06;;;;;;;10.38;7.47;;;;;;;14.16;75.78;98563.15;1870563;76;22113;-60
2021/05/15 23:16:42;;;;;;;10.58;7.78;;;;;;;14.07;76.08;98561.52;1870603;76;22128;-65
2021/05/15 23:19:17;;;;;;;14.55;8.63;;;;;;;14.01;76.34;98555.07;1870403;76;22169;-63
2021/05/15 23:21:53;;;;;;;12.70;8.80;;;;;;;13.95;76.54;98555.14;1870526;76;22206;-60
2021/05/15 23:24:28;;;;;;;10.85;8.18;;;;;;;13.91;76.75;98548.25;1889864;76;22543;-61
2021/05/15 23:27:03;;;;;;;11.38;8.48;;;;;;;13.86;77.00;98559.10;1870603;76;22570;-61
2021/05/15 23:29:39;;;;;;;12.15;8.33;;;;;;;13.80;77.22;98561.32;1854703;76;28270;-60
2021/05/15 23:32:14;;;;;;;8.80;6.95;;;;;;;13.82;77.52;98560.02;1889852;76;22152;-61
2021/05/15 23:34:49;;;;;;;13.72;8.40;;;;;;;13.80;77.68;98560.47;1889834;76;22536;-63
2021/05/15 23:37:24;;;;;;;10.85;8.18;;;;;;;13.77;77.97;98561.80;1870563;76;22145;-63
2021/05/15 23:40:01;;;;;;;10.60;7.55;;;;;;;13.77;78.15;98566.98;1889809;76;22615;-62
2021/05/15 23:42:45;;;;;;;10.90;8.00;;;;;;;13.84;78.24;98567.33;1889822;76;22163;-63
2021/05/15 23:45:22;;;;;;;12.55;8.78;;;;;;;13.89;78.15;98564.25;1889790;76;22606;-64
2021/05/15 23:47:57;;;;;;;13.75;9.53;;;;;;;13.90;78.11;98568.59;1870540;76;22116;-62
2021/05/15 23:50:33;;;;;;;11.08;8.80;;;;;;;13.89;78.19;98565.55;1854488;76;27878;-63
2021/05/15 23:53:17;;;;;;;11.95;8.73;;;;;;;13.90;78.42;98570.74;1889838;76;22148;-63
2021/05/15 23:55:52;;;;;;;10.90;8.33;;;;;;;13.94;78.39;98575.45;1870382;76;22149;-64
2021/05/15 23:58:26;;;;;;;10.50;7.58;;;;;;;13.99;78.33;98573.70;1870545;76;22145;-64
